Time;durP1;ratioP1;P1;durP2;ratioP2;P2;SDS_P1;SDS_P2;PMS_P1;PMS_P2;Temp;Humidity;BMP_temperature;BMP_pressure;BME280_temperature;BME280_humidity;BME280_pressure;Samples;Min_cycle;Max_cycle;Signal;HPM_P1;HPM_P2
2022/02/15 00:01:04;;;;;;;7.28;3.10;;;;;;;12.33;43.45;94674.09;5049900;28;20087;-71
2022/02/15 00:03:30;;;;;;;9.13;3.30;;;;;;;12.59;42.38;94665.91;5032504;28;20163;-71
2022/02/15 00:05:56;;;;;;;7.18;3.58;;;;;;;12.52;42.12;94628.28;5050452;28;20032;-70
2022/02/15 00:08:21;;;;;;;6.65;3.35;;;;;;;12.99;42.20;94681.34;5049684;28;20384;-72
2022/02/15 00:10:47;;;;;;;6.07;3.85;;;;;;;12.69;42.31;94649.50;5031852;28;20389;-70
2022/02/15 00:13:13;;;;;;;4.97;3.88;;;;;;;12.52;42.70;94689.66;5032160;28;20025;-70
2022/02/15 00:15:39;;;;;;;8.15;3.60;;;;;;;12.50;42.73;94686.53;5050215;28;20025;-70
2022/02/15 00:18:04;;;;;;;4.28;3.83;;;;;;;11.65;44.42;94670.75;5032343;28;20025;-70
2022/02/15 00:20:30;;;;;;;6.22;4.00;;;;;;;12.17;44.24;94697.91;5050192;28;20083;-70
2022/02/15 00:22:55;;;;;;;6.60;4.15;;;;;;;11.81;44.65;94673.63;5031710;28;20115;-70
2022/02/15 00:25:21;;;;;;;5.95;3.83;;;;;;;12.26;43.99;94702.41;5050325;28;20060;-70
2022/02/15 00:27:47;;;;;;;6.20;4.43;;;;;;;12.29;44.45;94702.53;5070336;28;20025;-70
2022/02/15 00:30:13;;;;;;;6.93;4.35;;;;;;;12.23;44.10;94699.28;5069847;28;20480;-70
2022/02/15 00:32:38;;;;;;;5.97;4.40;;;;;;;12.25;44.01;94680.28;5052434;28;20123;-69
2022/02/15 00:35:05;;;;;;;5.03;4.53;;;;;;;12.28;44.63;94698.28;5071543;28;20109;-70
2022/02/15 00:37:30;;;;;;;7.53;5.15;;;;;;;12.02;44.53;94697.69;5074247;28;20024;-71
2022/02/15 00:39:56;;;;;;;7.07;4.32;;;;;;;11.90;44.97;94672.53;5053928;28;20565;-69
2022/02/15 00:42:21;;;;;;;4.55;4.15;;;;;;;12.07;44.40;94692.16;5053673;28;20025;-69
2022/02/15 00:44:46;;;;;;;5.85;4.03;;;;;;;11.61;44.79;94653.84;5035656;28;20021;-70
2022/02/15 00:47:12;;;;;;;4.60;4.00;;;;;;;10.91;47.66;94696.72;5053385;28;20614;-69
2022/02/15 00:49:37;;;;;;;7.75;4.50;;;;;;;11.48;45.95;94689.50;5035058;28;20025;-70
2022/02/15 00:52:03;;;;;;;5.50;4.53;;;;;;;11.42;45.52;94718.19;5053344;28;20050;-69
2022/02/15 00:54:28;;;;;;;6.20;4.15;;;;;;;11.23;46.28;94697.25;5034758;28;20047;-71
2022/02/15 00:56:54;;;;;;;7.13;4.15;;;;;;;11.34;46.55;94690.47;5053096;28;20032;-70
2022/02/15 00:59:19;;;;;;;7.50;4.22;;;;;;;11.70;45.20;94670.56;5035225;28;20021;-70
2022/02/15 01:01:45;;;;;;;3.95;3.55;;;;;;;12.09;44.50;94668.66;5053139;28;20025;-70
2022/02/15 01:04:10;;;;;;;6.72;4.35;;;;;;;12.31;44.27;94691.53;5053239;28;20029;-70
2022/02/15 01:06:36;;;;;;;7.25;3.80;;;;;;;12.41;43.83;94683.16;5053167;28;20033;-70
2022/02/15 01:09:02;;;;;;;6.90;4.15;;;;;;;11.79;44.30;94711.28;5034527;28;20074;-69
2022/02/15 01:11:28;;;;;;;4.47;4.00;;;;;;;11.04;46.83;94726.88;5052451;28;20530;-71
2022/02/15 01:13:53;;;;;;;4.80;4.10;;;;;;;10.76;47.32;94697.19;5052894;28;20107;-71
2022/02/15 01:16:19;;;;;;;7.30;4.57;;;;;;;11.11;46.97;94718.44;5052977;28;20025;-71
2022/02/15 01:18:44;;;;;;;7.88;4.55;;;;;;;10.47;48.97;94715.69;5052808;28;20021;-71
2022/02/15 01:21:10;;;;;;;5.20;4.70;;;;;;;10.88;47.61;94709.84;5034653;28;20064;-72
2022/02/15 01:23:36;;;;;;;6.53;4.97;;;;;;;11.01;47.52;94708.91;5052532;28;20393;-71
2022/02/15 01:26:01;;;;;;;6.38;5.38;;;;;;;11.25;46.89;94705.69;5052838;28;20027;-72
2022/02/15 01:28:27;;;;;;;7.88;5.28;;;;;;;11.09;47.66;94725.94;5034375;28;20099;-71
2022/02/15 01:30:52;;;;;;;6.00;5.30;;;;;;;11.27;46.67;94716.03;5052452;28;20027;-71
2022/02/15 01:33:17;;;;;;;7.63;5.03;;;;;;;10.97;47.25;94715.16;5034983;28;20051;-71
2022/02/15 01:35:43;;;;;;;6.53;4.90;;;;;;;11.16;48.22;94732.34;5052654;28;20025;-71
2022/02/15 01:38:08;;;;;;;7.30;4.88;;;;;;;10.92;47.93;94706.25;5034201;28;20025;-71
2022/02/15 01:40:34;;;;;;;7.03;4.68;;;;;;;10.88;48.27;94728.47;5051829;28;20444;-70
2022/02/15 01:42:59;;;;;;;9.35;4.85;;;;;;;11.08;47.96;94721.72;5052472;28;20035;-70
2022/02/15 01:45:25;;;;;;;6.18;4.97;;;;;;;10.53;49.32;94698.47;5052044;28;20100;-71
2022/02/15 01:47:51;;;;;;;5.50;4.95;;;;;;;10.03;50.42;94722.78;5034672;28;20021;-71
2022/02/15 01:50:17;;;;;;;8.93;4.80;;;;;;;10.10;51.04;94734.53;5052073;28;20385;-70
2022/02/15 01:52:42;;;;;;;7.97;4.93;;;;;;;10.35;50.49;94719.75;5052098;28;20535;-71
2022/02/15 01:55:12;;;;;;;4.78;4.38;;;;;;;10.18;51.25;94702.97;5051549;28;20029;-70
2022/02/15 01:57:38;;;;;;;5.40;4.90;;;;;;;9.68;52.33;94701.47;5051925;28;20021;-71
2022/02/15 02:00:07;;;;;;;6.57;5.10;;;;;;;10.00;51.98;94723.41;5051930;28;20028;-71
2022/02/15 02:02:32;;;;;;;5.75;4.50;;;;;;;9.94;51.54;94700.75;5034348;28;20021;-71
2022/02/15 02:07:43;;;;;;;5.90;5.18;;;;;;;9.79;52.82;94705.41;5052225;28;20130;-70
2022/02/15 02:10:08;;;;;;;5.20;4.78;;;;;;;10.16;52.07;94716.56;5050959;28;20108;-70
2022/02/15 02:12:34;;;;;;;5.43;4.78;;;;;;;10.12;51.76;94684.50;5033730;28;20033;-71
2022/02/15 02:14:59;;;;;;;6.63;5.10;;;;;;;10.40;51.30;94732.09;5034040;28;20458;-69
2022/02/15 02:17:24;;;;;;;6.28;5.68;;;;;;;10.17;51.95;94712.81;5034008;28;20025;-69
2022/02/15 02:19:56;;;;;;;8.63;5.20;;;;;;;10.38;52.72;94739.59;5051436;28;20056;-71
2022/02/15 02:22:27;;;;;;;6.10;5.50;;;;;;;10.17;52.28;94739.38;5033590;28;20095;-69
2022/02/15 02:24:54;;;;;;;5.75;5.10;;;;;;;9.99;52.99;94740.47;5050878;28;20036;-71
2022/02/15 02:27:23;;;;;;;6.00;4.65;;;;;;;10.20;52.54;94738.78;5033588;28;20021;-70
2022/02/15 02:29:51;;;;;;;5.95;5.25;;;;;;;10.51;51.55;94716.63;5033128;28;20036;-72
2022/02/15 02:32:20;;;;;;;6.07;5.10;;;;;;;10.44;51.94;94711.78;5033481;28;20025;-70
2022/02/15 02:34:45;;;;;;;9.20;5.95;;;;;;;11.08;50.55;94729.69;5051391;28;20047;-70
2022/02/15 02:37:14;;;;;;;5.20;4.70;;;;;;;10.67;51.34;94737.09;5051697;28;20466;-70
2022/02/15 02:39:44;;;;;;;5.80;5.00;;;;;;;9.66;54.41;94724.88;5051186;28;20033;-70
2022/02/15 02:42:10;;;;;;;6.00;4.57;;;;;;;10.03;53.10;94728.91;5051519;28;20112;-71
2022/02/15 02:44:36;;;;;;;5.13;4.60;;;;;;;10.30;52.52;94729.75;5051820;28;20033;-71
2022/02/15 02:47:02;;;;;;;5.70;5.10;;;;;;;10.08;53.49;94757.19;5051864;28;20432;-70
2022/02/15 02:49:27;;;;;;;5.82;5.30;;;;;;;10.38;53.02;94751.00;5051308;28;20021;-71
2022/02/15 02:51:52;;;;;;;5.63;4.70;;;;;;;10.54;52.37;94726.63;5033147;28;20033;-70
2022/02/15 02:54:18;;;;;;;6.10;4.68;;;;;;;9.64;55.37;94756.28;5032498;28;20025;-70
2022/02/15 02:56:43;;;;;;;6.20;4.68;;;;;;;9.78;54.97;94741.03;5050385;28;20474;-70
2022/02/15 02:59:09;;;;;;;5.47;4.97;;;;;;;10.33;52.81;94702.53;5050355;28;20492;-71
2022/02/15 03:01:34;;;;;;;5.63;4.88;;;;;;;9.79;55.16;94721.34;5050865;28;20028;-71
2022/02/15 03:03:59;;;;;;;6.65;4.60;;;;;;;9.38;55.91;94756.97;5050730;28;20104;-71
2022/02/15 03:06:26;;;;;;;5.20;4.80;;;;;;;10.06;54.84;94748.75;5050833;28;20021;-71
2022/02/15 03:08:52;;;;;;;6.03;5.43;;;;;;;10.03;54.71;94746.69;5050240;28;20025;-71
2022/02/15 03:11:17;;;;;;;4.55;4.07;;;;;;;10.21;54.21;94761.59;5032702;28;20036;-70
2022/02/15 03:13:43;;;;;;;5.85;4.70;;;;;;;10.80;53.33;94750.53;5050693;28;20028;-70
2022/02/15 03:16:08;;;;;;;5.70;4.00;;;;;;;9.75;55.57;94765.53;5050809;28;20021;-71
2022/02/15 03:18:33;;;;;;;5.13;3.72;;;;;;;10.35;53.44;94762.28;5050375;28;20043;-70
2022/02/15 03:20:59;;;;;;;4.53;3.00;;;;;;;9.22;57.56;94762.97;5050580;28;20017;-68
2022/02/15 03:23:24;;;;;;;7.38;3.25;;;;;;;9.13;57.70;94768.22;5050673;28;20378;-68
2022/02/15 03:25:50;;;;;;;5.13;3.15;;;;;;;9.43;56.85;94789.78;5050016;28;20044;-68
2022/02/15 03:28:16;;;;;;;3.58;3.28;;;;;;;9.82;56.33;94802.28;5050652;28;20025;-71
2022/02/15 03:30:42;;;;;;;5.50;2.95;;;;;;;8.96;58.04;94786.69;5032193;28;20036;-70
2022/02/15 03:33:07;;;;;;;3.10;2.38;;;;;;;9.54;57.71;94793.72;5032659;28;20028;-70
2022/02/15 03:35:32;;;;;;;3.50;2.70;;;;;;;8.85;59.11;94802.03;5032940;28;20056;-70
2022/02/15 03:37:58;;;;;;;4.05;2.97;;;;;;;9.52;57.36;94798.53;5050494;28;20032;-70
2022/02/15 03:43:04;;;;;;;3.05;2.63;;;;;;;9.34;58.34;94785.19;5031429;28;20028;-70
2022/02/15 03:43:08;;;;;;;5.35;3.03;;;;;;;9.31;58.19;94800.94;5050022;28;20083;-71
2022/02/15 03:45:36;;;;;;;3.60;2.88;;;;;;;8.83;60.02;94802.34;5050750;28;20669;-70
2022/02/15 03:48:02;;;;;;;4.65;3.20;;;;;;;8.77;60.08;94786.84;5049930;28;20497;-70
2022/02/15 03:50:27;;;;;;;4.40;3.50;;;;;;;8.56;60.72;94791.84;5049165;28;20027;-70
2022/02/15 03:52:53;;;;;;;5.07;3.75;;;;;;;9.49;59.33;94818.53;5050278;28;20108;-71
2022/02/15 03:55:19;;;;;;;4.60;3.85;;;;;;;9.14;59.83;94798.97;5049698;28;20057;-70
2022/02/15 03:57:44;;;;;;;4.78;4.00;;;;;;;9.32;59.08;94811.25;5032368;28;20028;-70
2022/02/15 04:00:11;;;;;;;5.68;3.97;;;;;;;8.77;60.34;94811.50;5032244;28;20480;-71
2022/02/15 04:02:36;;;;;;;4.70;4.30;;;;;;;9.49;59.46;94815.09;5032388;28;20052;-70
2022/02/15 04:05:02;;;;;;;5.70;4.30;;;;;;;9.03;60.27;94821.53;5050496;28;20067;-69
2022/02/15 04:07:27;;;;;;;8.65;4.10;;;;;;;8.56;61.51;94786.53;5050407;28;20063;-68
2022/02/15 04:09:53;;;;;;;5.75;4.32;;;;;;;8.87;60.88;94807.06;5052174;28;20501;-70
2022/02/15 04:12:18;;;;;;;7.03;3.83;;;;;;;9.16;60.21;94818.00;5035757;28;20056;-69
2022/02/15 04:14:44;;;;;;;4.32;3.92;;;;;;;9.17;60.57;94802.91;5036125;28;20140;-69
2022/02/15 04:17:09;;;;;;;4.18;3.65;;;;;;;9.88;58.81;94817.78;5053973;28;20051;-69
2022/02/15 04:19:34;;;;;;;5.07;4.32;;;;;;;10.27;57.52;94823.41;5053680;28;20070;-69
2022/02/15 04:22:00;;;;;;;5.88;4.50;;;;;;;10.23;56.90;94807.25;5053725;28;20120;-69
2022/02/15 04:24:25;;;;;;;5.22;4.38;;;;;;;10.11;57.20;94823.78;5030621;28;20025;-69
2022/02/15 04:26:50;;;;;;;5.22;4.00;;;;;;;10.59;55.74;94841.59;5066622;28;20025;-69
2022/02/15 04:29:17;;;;;;;4.38;3.97;;;;;;;10.06;55.93;94828.47;5055927;28;20024;-69
2022/02/15 04:31:43;;;;;;;6.22;3.97;;;;;;;10.44;55.92;94844.72;5073433;28;20035;-69
2022/02/15 04:34:08;;;;;;;4.45;3.85;;;;;;;10.34;56.70;94815.78;5055980;28;20021;-69
2022/02/15 04:36:34;;;;;;;4.70;4.28;;;;;;;9.28;59.09;94839.50;5055731;28;20051;-69
2022/02/15 04:38:59;;;;;;;4.40;3.75;;;;;;;9.45;58.40;94824.75;5053157;28;20035;-69
2022/02/15 04:41:25;;;;;;;6.45;4.32;;;;;;;10.51;56.75;94838.94;5053352;28;20033;-70
2022/02/15 04:43:50;;;;;;;5.43;3.40;;;;;;;9.42;58.26;94820.84;5053588;28;20078;-70
2022/02/15 04:46:16;;;;;;;4.35;3.42;;;;;;;8.82;60.17;94814.03;5035692;28;20111;-68
2022/02/15 04:48:42;;;;;;;4.75;4.18;;;;;;;9.29;59.27;94824.34;5035304;28;20036;-69
2022/02/15 04:51:07;;;;;;;4.20;3.80;;;;;;;9.72;58.49;94845.03;5035525;28;20025;-68
2022/02/15 04:53:33;;;;;;;4.13;3.42;;;;;;;9.05;59.22;94812.16;5035549;28;20025;-68
2022/02/15 04:56:02;;;;;;;3.47;2.97;;;;;;;9.67;58.59;94853.91;5053336;28;20017;-68
2022/02/15 04:58:27;;;;;;;4.40;3.78;;;;;;;9.18;58.29;94776.06;5070828;28;20208;-70
2022/02/15 05:00:53;;;;;;;4.03;3.67;;;;;;;9.81;58.34;94851.19;5056062;28;20028;-70
2022/02/15 05:03:18;;;;;;;4.10;3.53;;;;;;;9.04;59.96;94818.56;5073270;28;20036;-67
2022/02/15 05:05:44;;;;;;;3.97;3.58;;;;;;;10.22;57.73;94863.38;5073202;28;20123;-69
2022/02/15 05:08:09;;;;;;;4.63;3.53;;;;;;;10.65;56.84;94860.88;5073076;28;20029;-71
2022/02/15 05:10:37;;;;;;;4.25;2.92;;;;;;;9.56;58.08;94863.22;5058023;28;20025;-72
2022/02/15 05:13:08;;;;;;;6.28;3.25;;;;;;;8.53;60.80;94822.34;5035193;28;20113;-70
2022/02/15 05:15:33;;;;;;;4.22;3.83;;;;;;;9.46;58.89;94850.22;5034933;28;20028;-70
2022/02/15 05:17:59;;;;;;;4.82;3.45;;;;;;;9.48;59.11;94861.31;5053067;28;20025;-72
2022/02/15 05:20:24;;;;;;;4.07;3.42;;;;;;;9.30;59.60;94802.81;5052425;28;20021;-72
2022/02/15 05:22:51;;;;;;;5.70;3.20;;;;;;;9.61;59.45;94858.56;5053130;28;20109;-73
2022/02/15 05:25:17;;;;;;;3.58;2.70;;;;;;;8.41;61.95;94856.56;5034534;28;20032;-70
2022/02/15 05:27:42;;;;;;;5.40;2.97;;;;;;;8.22;62.27;94826.69;5046631;28;20028;-72
2022/02/15 05:30:09;;;;;;;4.97;2.92;;;;;;;9.09;60.99;94868.06;5072492;28;20055;-72
2022/02/15 05:32:34;;;;;;;4.35;2.92;;;;;;;9.94;58.91;94868.13;5072340;28;20059;-72
2022/02/15 05:35:00;;;;;;;3.35;3.05;;;;;;;10.08;58.57;94856.31;5054605;28;20427;-72
2022/02/15 05:37:25;;;;;;;6.20;2.90;;;;;;;8.34;61.44;94854.28;5072494;28;20477;-71
2022/02/15 05:39:50;;;;;;;4.32;2.53;;;;;;;8.22;62.49;94826.69;5064836;28;20450;-74
2022/02/15 05:42:16;;;;;;;3.50;2.78;;;;;;;8.23;62.16;94813.16;5050376;28;20679;-72
2022/02/15 05:44:41;;;;;;;4.35;2.80;;;;;;;8.47;61.91;94836.03;5072449;28;20028;-72
2022/02/15 05:47:07;;;;;;;3.08;2.60;;;;;;;8.52;61.85;94835.91;5072367;28;20024;-69
2022/02/15 05:50:49;;;;;;;4.28;2.92;;;;;;;9.25;62.01;94890.50;5072257;28;20523;-65
2022/02/15 05:52:17;;;;;;;2.67;2.25;;;;;;;9.29;61.32;94872.91;5071583;28;20039;-65
2022/02/15 05:54:43;;;;;;;4.68;2.63;;;;;;;9.86;59.49;94889.03;5066237;28;20025;-65
2022/02/15 05:57:08;;;;;;;6.35;3.20;;;;;;;9.77;58.58;94896.16;5051815;28;20021;-66
2022/02/15 05:59:33;;;;;;;3.42;2.97;;;;;;;10.05;57.94;94874.75;5051556;28;20025;-66
2022/02/15 06:01:59;;;;;;;4.38;2.88;;;;;;;10.48;57.00;94898.06;5051656;28;20047;-66
2022/02/15 06:04:24;;;;;;;2.65;2.40;;;;;;;10.28;56.42;94886.88;5051809;28;20017;-68
2022/02/15 06:06:50;;;;;;;3.85;2.80;;;;;;;9.03;58.49;94846.19;5051820;28;20458;-71
2022/02/15 06:09:17;;;;;;;4.32;2.70;;;;;;;8.72;59.57;94847.94;5014789;28;20022;-68
2022/02/15 06:11:43;;;;;;;5.40;2.97;;;;;;;8.54;59.45;94791.31;5067253;28;20024;-69
2022/02/15 06:14:08;;;;;;;4.55;3.22;;;;;;;9.40;59.09;94901.84;5074918;28;20112;-69
2022/02/15 06:16:34;;;;;;;3.67;3.22;;;;;;;10.09;58.00;94910.25;5071482;28;20028;-69
2022/02/15 06:19:00;;;;;;;4.13;3.22;;;;;;;10.40;56.65;94926.19;5071269;28;20031;-69
2022/02/15 06:21:25;;;;;;;4.03;3.00;;;;;;;10.22;56.88;94925.31;5071228;28;20099;-68
2022/02/15 06:23:51;;;;;;;3.63;3.22;;;;;;;10.36;56.88;94910.06;5071254;28;20059;-66
2022/02/15 06:26:17;;;;;;;3.92;3.22;;;;;;;9.24;59.19;94910.19;5062088;28;20082;-68
2022/02/15 06:28:42;;;;;;;5.60;3.58;;;;;;;9.80;58.15;94900.88;5071031;28;20028;-69
2022/02/15 06:31:10;;;;;;;4.05;3.65;;;;;;;9.81;56.41;94854.63;5070935;28;20020;-69
2022/02/15 06:33:35;;;;;;;3.92;3.53;;;;;;;9.64;57.46;94873.13;5071423;28;20099;-68
2022/02/15 06:36:02;;;;;;;7.63;3.45;;;;;;;10.19;56.23;94895.91;5071106;28;20103;-68
2022/02/15 06:38:27;;;;;;;4.82;3.58;;;;;;;10.49;55.27;94903.06;5053186;28;20051;-68
2022/02/15 06:40:53;;;;;;;5.38;3.00;;;;;;;10.53;55.11;94898.69;5057064;28;20562;-67
2022/02/15 06:43:18;;;;;;;5.57;3.50;;;;;;;11.03;54.17;94919.63;5050644;28;20100;-68
2022/02/15 06:45:44;;;;;;;4.90;2.95;;;;;;;10.67;54.48;94920.63;5032971;28;20029;-67
2022/02/15 06:48:11;;;;;;;5.20;3.40;;;;;;;10.66;54.73;94910.31;5050776;28;20027;-70
2022/02/15 06:50:37;;;;;;;4.97;2.80;;;;;;;10.92;54.11;94929.78;5032583;28;20378;-69
2022/02/15 06:53:03;;;;;;;4.55;2.90;;;;;;;10.89;53.68;94949.00;5050763;28;20112;-69
2022/02/15 06:55:28;;;;;;;3.30;3.00;;;;;;;10.09;55.36;94942.13;5050260;28;20108;-69
2022/02/15 06:57:54;;;;;;;4.03;3.00;;;;;;;10.32;55.36;94942.88;5050445;28;20021;-70
2022/02/15 07:00:19;;;;;;;3.40;2.85;;;;;;;10.47;54.73;94949.69;5050613;28;20040;-69
2022/02/15 07:02:44;;;;;;;4.07;3.22;;;;;;;10.67;55.30;94963.19;5032889;28;20029;-71
2022/02/15 07:05:10;;;;;;;3.45;2.85;;;;;;;11.13;54.54;94964.56;5050694;28;20032;-72
2022/02/15 07:07:35;;;;;;;3.25;2.80;;;;;;;10.99;54.42;94977.22;5050711;28;20025;-72
2022/02/15 07:10:01;;;;;;;4.47;3.00;;;;;;;11.28;53.53;94960.66;5049763;28;20017;-72
2022/02/15 07:12:27;;;;;;;3.22;2.92;;;;;;;11.43;53.04;94928.25;5049876;28;20025;-72
2022/02/15 07:14:52;;;;;;;4.28;3.35;;;;;;;11.78;52.70;94967.41;5050714;28;20024;-74
2022/02/15 07:17:18;;;;;;;6.72;3.35;;;;;;;11.29;52.74;94966.78;5050687;28;20029;-71
2022/02/15 07:19:43;;;;;;;3.38;3.00;;;;;;;11.38;52.42;94930.28;5032279;28;20029;-71
2022/02/15 07:22:09;;;;;;;6.57;3.20;;;;;;;11.89;52.16;94982.00;5050232;28;20029;-69
2022/02/15 07:24:35;;;;;;;4.78;3.28;;;;;;;11.94;51.40;94973.84;5032171;28;20020;-69
2022/02/15 07:27:01;;;;;;;4.32;3.40;;;;;;;12.06;51.10;94984.63;5050233;28;20123;-70
2022/02/15 07:29:26;;;;;;;6.78;3.28;;;;;;;12.05;51.25;94980.41;5051829;28;20104;-69
2022/02/15 07:31:52;;;;;;;3.42;3.10;;;;;;;12.08;51.29;94971.78;5069892;28;20037;-71
2022/02/15 07:34:17;;;;;;;5.18;3.67;;;;;;;12.19;51.08;94970.34;5070111;28;20027;-70
2022/02/15 07:36:44;;;;;;;5.15;3.58;;;;;;;12.35;50.83;94983.94;5070163;28;20508;-69
2022/02/15 07:39:10;;;;;;;4.22;3.80;;;;;;;12.49;50.57;94983.75;5051860;28;20028;-70
2022/02/15 07:41:35;;;;;;;4.88;3.42;;;;;;;12.52;50.15;94991.09;5028388;28;20044;-70
2022/02/15 07:44:01;;;;;;;6.75;4.13;;;;;;;12.61;50.09;94977.75;5050958;28;20452;-70
2022/02/15 07:46:26;;;;;;;8.45;5.00;;;;;;;12.64;49.53;94982.41;5035911;28;20437;-70
2022/02/15 07:48:52;;;;;;;6.63;4.65;;;;;;;12.81;49.57;94993.03;5053826;28;20067;-70
2022/02/15 07:51:18;;;;;;;5.97;5.38;;;;;;;12.85;49.65;94993.97;5053822;28;20029;-71
2022/02/15 07:53:44;;;;;;;5.80;5.18;;;;;;;12.92;48.81;94990.78;5036361;28;20127;-70
2022/02/15 07:56:10;;;;;;;5.75;5.25;;;;;;;13.07;48.87;94997.47;5053661;28;20103;-70
2022/02/15 07:58:36;;;;;;;5.35;4.85;;;;;;;13.11;49.01;95001.06;5046554;28;20565;-71
2022/02/15 08:01:01;;;;;;;5.50;5.00;;;;;;;13.18;48.72;94994.09;5056030;28;20062;-72
2022/02/15 08:03:27;;;;;;;6.90;5.28;;;;;;;13.27;48.93;94991.41;5074791;28;20021;-69
2022/02/15 08:05:52;;;;;;;6.22;5.60;;;;;;;13.49;48.35;94996.44;5075115;28;20032;-69
2022/02/15 08:08:18;;;;;;;5.68;4.97;;;;;;;13.38;47.75;94975.78;5056725;28;20032;-69
2022/02/15 08:10:44;;;;;;;5.88;5.30;;;;;;;13.47;47.36;94979.19;5047361;28;20029;-70
2022/02/15 08:13:10;;;;;;;5.53;5.03;;;;;;;13.62;47.16;94991.19;5061293;28;20127;-69
2022/02/15 08:15:40;;;;;;;5.15;4.65;;;;;;;13.79;47.00;94996.38;5074675;28;20024;-69
2022/02/15 08:18:06;;;;;;;8.13;4.75;;;;;;;13.70;46.98;94956.34;5056755;28;20492;-70
2022/02/15 08:20:33;;;;;;;5.72;5.15;;;;;;;14.01;46.88;94992.56;5074296;28;20032;-69
2022/02/15 08:22:58;;;;;;;7.18;5.20;;;;;;;13.91;46.50;94993.75;5074283;28;20033;-69
2022/02/15 08:25:24;;;;;;;5.20;4.70;;;;;;;14.01;46.10;95004.03;5068781;28;20052;-69
2022/02/15 08:27:49;;;;;;;6.05;5.03;;;;;;;13.76;46.49;94964.94;5053698;28;20099;-69
2022/02/15 08:30:16;;;;;;;6.47;4.85;;;;;;;14.00;46.32;94993.69;5053245;28;20025;-69
2022/02/15 08:32:42;;;;;;;5.43;4.72;;;;;;;14.23;46.04;95005.59;5053707;28;20037;-70
2022/02/15 08:35:08;;;;;;;5.88;4.22;;;;;;;14.31;45.92;95011.94;5035891;28;20389;-69
2022/02/15 08:37:35;;;;;;;5.82;4.72;;;;;;;14.42;46.03;95009.63;5053687;28;20083;-70
2022/02/15 08:40:02;;;;;;;4.28;3.88;;;;;;;14.32;45.32;94994.78;5052603;28;20108;-69
2022/02/15 08:42:28;;;;;;;7.35;4.20;;;;;;;14.22;45.04;94979.91;5053079;28;20477;-71
2022/02/15 08:44:53;;;;;;;9.68;4.45;;;;;;;14.26;45.18;95012.16;5053379;28;20025;-70
2022/02/15 08:47:21;;;;;;;5.38;4.00;;;;;;;13.77;45.40;95009.28;5035750;28;20025;-70
2022/02/15 08:49:49;;;;;;;6.20;3.90;;;;;;;14.10;45.61;95029.94;5035464;28;20431;-70
2022/02/15 08:52:15;;;;;;;4.95;4.00;;;;;;;14.10;45.73;95028.03;5035363;28;20119;-70
2022/02/15 08:54:41;;;;;;;4.60;3.65;;;;;;;14.04;45.89;95027.47;5035137;28;20052;-70
2022/02/15 08:57:06;;;;;;;4.70;3.45;;;;;;;13.72;45.74;95031.66;5052190;28;20068;-69
2022/02/15 08:59:31;;;;;;;4.40;3.70;;;;;;;13.63;46.38;95038.94;5035165;28;20028;-69
2022/02/15 09:01:57;;;;;;;5.18;2.75;;;;;;;13.42;46.70;95028.25;5052666;28;20071;-70
2022/02/15 09:04:22;;;;;;;4.57;2.60;;;;;;;13.65;46.36;95033.28;5053309;28;20025;-69
2022/02/15 09:06:48;;;;;;;2.63;2.22;;;;;;;13.98;46.07;95036.81;5052690;28;20394;-69
2022/02/15 09:09:13;;;;;;;5.53;2.47;;;;;;;13.89;45.91;95033.41;5052564;28;20029;-69
2022/02/15 09:11:40;;;;;;;3.85;2.47;;;;;;;14.08;45.89;95029.50;5052029;28;20032;-69
2022/02/15 09:14:05;;;;;;;2.45;2.10;;;;;;;14.07;45.64;95034.03;5052968;28;20532;-70
2022/02/15 09:16:31;;;;;;;2.38;1.77;;;;;;;14.14;45.58;95039.66;5034825;28;20025;-70
2022/02/15 09:18:57;;;;;;;1.95;1.75;;;;;;;14.17;45.32;95035.53;5034651;28;20547;-69
2022/02/15 09:21:23;;;;;;;3.40;2.00;;;;;;;14.32;45.06;95040.25;5052290;28;20025;-70
2022/02/15 09:23:48;;;;;;;2.70;1.77;;;;;;;14.34;44.91;95045.31;5052678;28;20462;-70
2022/02/15 09:26:14;;;;;;;2.58;1.60;;;;;;;14.46;45.00;95027.38;5034083;28;20120;-68
2022/02/15 09:28:39;;;;;;;5.82;1.80;;;;;;;14.32;45.00;95035.69;5052197;28;20370;-70
2022/02/15 09:31:05;;;;;;;2.53;1.63;;;;;;;14.00;45.64;95029.22;5034132;28;20025;-71
2022/02/15 09:33:31;;;;;;;1.42;1.23;;;;;;;12.64;48.38;95044.59;5052751;28;20114;-69
2022/02/15 09:35:57;;;;;;;1.75;1.65;;;;;;;13.24;47.44;95040.91;5034783;28;20497;-71
2022/02/15 09:38:23;;;;;;;2.15;1.60;;;;;;;12.67;48.47;95048.50;5034527;28;20112;-70
2022/02/15 09:40:49;;;;;;;2.05;1.45;;;;;;;13.54;48.03;95056.94;5033966;28;20082;-71
2022/02/15 09:43:15;;;;;;;1.58;1.48;;;;;;;13.01;48.05;95051.06;5067984;28;20032;-71
2022/02/15 09:45:43;;;;;;;2.53;1.40;;;;;;;13.67;47.28;95047.88;5054446;28;20495;-70
2022/02/15 09:48:09;;;;;;;1.77;1.20;;;;;;;13.60;46.82;95052.94;5072236;28;20107;-70
2022/02/15 09:50:35;;;;;;;2.63;1.35;;;;;;;12.64;48.91;95051.81;5053873;28;20032;-70
2022/02/15 09:53:02;;;;;;;2.15;1.42;;;;;;;13.26;48.11;95056.63;5072255;28;20055;-70
2022/02/15 09:55:28;;;;;;;1.80;1.52;;;;;;;12.37;50.10;95077.75;5069499;28;20056;-69
2022/02/15 09:57:56;;;;;;;2.70;1.30;;;;;;;12.60;49.70;95069.56;5056715;28;20528;-71
2022/02/15 10:00:31;;;;;;;2.15;1.17;;;;;;;13.39;48.82;95071.63;5053585;28;20437;-71
2022/02/15 10:02:58;;;;;;;1.63;1.40;;;;;;;12.88;49.14;95068.06;5071777;28;20044;-71
2022/02/15 10:05:31;;;;;;;1.45;1.27;;;;;;;12.64;49.97;95070.47;5053796;28;20032;-70
2022/02/15 10:07:57;;;;;;;1.60;1.27;;;;;;;12.56;49.73;95074.75;5071483;28;20107;-70
2022/02/15 10:10:41;;;;;;;1.75;1.33;;;;;;;13.53;48.71;95082.09;5070433;28;20103;-71
2022/02/15 10:13:13;;;;;;;2.33;1.42;;;;;;;13.91;47.35;95089.22;5033740;28;20032;-69
2022/02/15 10:15:41;;;;;;;2.65;1.27;;;;;;;13.81;47.71;95092.28;5052115;28;20025;-72
2022/02/15 10:18:12;;;;;;;2.17;1.77;;;;;;;14.56;46.76;95085.88;5051975;28;20036;-69
2022/02/15 10:20:41;;;;;;;2.47;1.23;;;;;;;13.37;47.46;95084.53;5051574;28;20090;-71
2022/02/15 10:23:24;;;;;;;1.45;1.35;;;;;;;12.93;49.30;95089.25;5051919;28;20495;-70
2022/02/15 10:25:52;;;;;;;2.58;1.55;;;;;;;13.42;49.28;95094.25;5051222;28;20650;-69
2022/02/15 10:28:28;;;;;;;2.78;1.30;;;;;;;12.62;49.76;95102.81;5051062;28;20017;-69
2022/02/15 10:30:56;;;;;;;1.83;1.10;;;;;;;13.46;48.88;95089.81;5051535;28;20029;-70
2022/02/15 10:33:31;;;;;;;1.63;1.13;;;;;;;13.20;48.68;95095.25;5051492;28;20539;-70
2022/02/15 10:36:02;;;;;;;1.55;1.13;;;;;;;13.36;47.95;95090.19;5033484;28;20025;-70
2022/02/15 10:38:30;;;;;;;2.55;1.02;;;;;;;12.42;50.76;95096.25;5033721;28;20419;-69
2022/02/15 10:41:14;;;;;;;2.45;1.00;;;;;;;12.84;50.17;95101.81;5029206;28;20037;-71
2022/02/15 10:43:49;;;;;;;2.13;1.30;;;;;;;12.98;49.06;95094.41;5043799;28;20063;-72
2022/02/15 10:46:24;;;;;;;2.05;1.35;;;;;;;12.54;51.11;95106.31;5050788;28;20037;-71
2022/02/15 10:48:50;;;;;;;1.67;1.08;;;;;;;13.57;48.65;95103.63;5050967;28;20060;-71
2022/02/15 10:51:17;;;;;;;2.28;1.38;;;;;;;13.50;48.18;95086.19;5050588;28;20546;-70
2022/02/15 10:53:43;;;;;;;2.80;1.40;;;;;;;13.51;48.59;95093.09;5051047;28;20098;-71
2022/02/15 10:56:09;;;;;;;2.08;1.30;;;;;;;14.05;47.57;95097.78;5027733;28;20034;-70
2022/02/15 10:58:34;;;;;;;1.25;1.15;;;;;;;14.45;46.85;95081.22;5048957;28;20052;-70
2022/02/15 11:01:03;;;;;;;1.92;1.15;;;;;;;13.06;49.48;95097.38;5050451;28;20029;-70
2022/02/15 11:03:31;;;;;;;1.65;1.10;;;;;;;14.15;47.92;95081.34;5051060;28;20056;-69
2022/02/15 11:05:57;;;;;;;1.50;1.23;;;;;;;14.26;47.36;95098.53;5032998;28;20017;-70
2022/02/15 11:08:23;;;;;;;2.53;1.40;;;;;;;13.85;47.27;95099.34;5032752;28;20067;-70
2022/02/15 11:11:10;;;;;;;1.88;1.25;;;;;;;13.83;46.47;95098.88;5050450;28;20024;-70
2022/02/15 11:13:38;;;;;;;1.23;1.13;;;;;;;13.84;47.64;95083.63;5034750;28;20025;-70
2022/02/15 11:16:15;;;;;;;2.00;1.70;;;;;;;14.44;46.25;95091.16;5070743;28;20500;-70
2022/02/15 11:18:40;;;;;;;1.52;1.25;;;;;;;12.84;49.28;95088.47;5051853;28;20077;-70
2022/02/15 11:21:07;;;;;;;1.85;1.35;;;;;;;12.16;50.01;95092.84;5052438;28;20024;-71
2022/02/15 11:23:35;;;;;;;1.98;1.60;;;;;;;12.04;50.77;95084.69;5052578;28;20676;-69
2022/02/15 11:26:12;;;;;;;2.03;1.80;;;;;;;12.80;49.85;95092.91;5048760;28;20037;-70
2022/02/15 11:28:51;;;;;;;2.42;1.83;;;;;;;11.51;52.36;95107.00;5032168;28;20024;-70
2022/02/15 11:31:28;;;;;;;5.57;2.25;;;;;;;12.04;51.83;95098.03;5032393;28;20107;-70
2022/02/15 11:33:55;;;;;;;2.47;2.28;;;;;;;11.50;53.32;95100.13;5032788;28;20020;-70
2022/02/15 11:36:23;;;;;;;2.30;1.70;;;;;;;11.73;52.34;95103.47;5050742;28;20428;-70